Time;durP1;ratioP1;P1;durP2;ratioP2;P2;SDS_P1;SDS_P2;PMS_P1;PMS_P2;Temp;Humidity;BMP_temperature;BMP_pressure;BME280_temperature;BME280_humidity;BME280_pressure;Samples;Min_cycle;Max_cycle;Signal;HPM_P1;HPM_P2
2023/06/30 00:02:06;;;;;;;;;;;;;;;;;;4993914;28;9550;-85
2023/06/30 00:04:32;;;;;;;;;;;;;;;;;;4993723;28;7065;-85
2023/06/30 00:06:59;;;;;;;;;;;;;;;;;;4993963;28;8434;-85
2023/06/30 00:09:24;;;;;;;;;;;;;;;;;;4993662;28;8464;-85
2023/06/30 00:11:51;;;;;;;;;;;;;;;;;;4993876;28;8870;-85
2023/06/30 00:14:17;;;;;;;;;;;;;;;;;;4993935;28;8498;-85
2023/06/30 00:16:42;;;;;;;;;;;;;;;;;;4994284;28;7239;-85
2023/06/30 00:19:08;;;;;;;;;;;;;;;;;;4993775;28;8427;-85
2023/06/30 00:21:34;;;;;;;;;;;;;;;;;;4993953;28;7378;-85
2023/06/30 00:24:04;;;;;;;;;;;;;;;;;;4993402;28;7204;-85
2023/06/30 00:26:30;;;;;;;;;;;;;;;;;;4994114;28;8875;-85
2023/06/30 00:28:56;;;;;;;;;;;;;;;;;;4993467;28;8504;-85
2023/06/30 00:31:21;;;;;;;;;;;;;;;;;;4993854;28;8473;-85
2023/06/30 00:33:47;;;;;;;;;;;;;;;;;;4993474;28;7136;-85
2023/06/30 00:36:12;;;;;;;;;;;;;;;;;;4993238;28;8503;-84
2023/06/30 00:38:38;;;;;;;;;;;;;;;;;;4993609;28;8482;-84
2023/06/30 00:41:03;;;;;;;;;;;;;;;;;;4994065;28;7086;-85
2023/06/30 00:43:29;;;;;;;;;;;;;;;;;;4993673;28;8708;-85
2023/06/30 00:45:56;;;;;;;;;;;;;;;;;;4993904;28;8582;-85
2023/06/30 00:48:21;;;;;;;;;;;;;;;;;;4993635;28;7288;-85
2023/06/30 00:50:47;;;;;;;;;;;;;;;;;;4993395;28;8459;-85
2023/06/30 00:53:13;;;;;;;;;;;;;;;;;;4993427;28;7214;-85
2023/06/30 00:55:40;;;;;;;;;;;;;;;;;;4993649;28;7106;-85
2023/06/30 00:58:05;;;;;;;;;;;;;;;;;;4993660;28;7105;-86
2023/06/30 01:00:31;;;;;;;;;;;;;;;;;;4993569;28;7295;-85
2023/06/30 01:03:11;;;;;;;;;;;;;;;;;;4993001;28;7138;-85
2023/06/30 01:05:47;;;;;;;;;;;;;;;;;;4993793;28;8411;-85
2023/06/30 01:08:22;;;;;;;;;;;;;;;;;;4993501;28;7432;-84
2023/06/30 01:10:48;;;;;;;;;;;;;;;;;;5009997;28;7511;-84
2023/06/30 01:13:15;;;;;;;;;;;;;;;;;;4993147;28;8749;-84
2023/06/30 01:15:43;;;;;;;;;;;;;;;;;;4993336;28;8994;-84
2023/06/30 01:18:12;;;;;;;;;;;;;;;;;;4993417;28;8864;-85
2023/06/30 01:20:40;;;;;;;;;;;;;;;;;;4993012;28;8870;-85
2023/06/30 01:23:11;;;;;;;;;;;;;;;;;;4993235;28;7175;-86
2023/06/30 01:25:38;;;;;;;;;;;;;;;;;;5009491;28;8380;-85
2023/06/30 01:28:04;;;;;;;;;;;;;;;;;;4993366;28;8480;-86
2023/06/30 01:30:31;;;;;;;;;;;;;;;;;;4993117;28;8491;-86
2023/06/30 01:32:58;;;;;;;;;;;;;;;;;;4993423;28;8444;-86
2023/06/30 01:35:24;;;;;;;;;;;;;;;;;;4996434;28;7204;-85
2023/06/30 01:37:50;;;;;;;;;;;;;;;;;;4996773;28;7123;-84
2023/06/30 01:40:16;;;;;;;;;;;;;;;;;;4996938;28;7185;-85
2023/06/30 01:42:42;;;;;;;;;;;;;;;;;;4996332;28;7244;-85
2023/06/30 01:45:09;;;;;;;;;;;;;;;;;;4996540;28;8667;-85
2023/06/30 01:47:36;;;;;;;;;;;;;;;;;;4996353;28;8494;-86
2023/06/30 01:50:02;;;;;;;;;;;;;;;;;;4995985;28;8638;-85
2023/06/30 01:52:28;;;;;;;;;;;;;;;;;;4996418;28;8464;-85
2023/06/30 01:54:53;;;;;;;;;;;;;;;;;;4996290;28;8464;-85
2023/06/30 01:57:19;;;;;;;;;;;;;;;;;;4996587;28;8520;-85
2023/06/30 01:59:44;;;;;;;;;;;;;;;;;;4996078;28;8340;-85
2023/06/30 02:02:11;;;;;;;;;;;;;;;;;;4995905;28;7229;-85
2023/06/30 02:04:37;;;;;;;;;;;;;;;;;;4995860;28;8511;-85
2023/06/30 02:07:03;;;;;;;;;;;;;;;;;;4995895;28;7111;-85
2023/06/30 02:09:29;;;;;;;;;;;;;;;;;;4996096;28;7478;-84
2023/06/30 02:11:55;;;;;;;;;;;;;;;;;;4996191;28;7247;-86
2023/06/30 02:14:21;;;;;;;;;;;;;;;;;;4995909;28;8477;-86
2023/06/30 02:16:46;;;;;;;;;;;;;;;;;;4996150;28;8887;-86
2023/06/30 02:19:12;;;;;;;;;;;;;;;;;;4996059;28;8465;-85
2023/06/30 02:21:37;;;;;;;;;;;;;;;;;;4996222;28;8374;-86
2023/06/30 02:24:03;;;;;;;;;;;;;;;;;;4995846;28;7094;-86
2023/06/30 02:26:28;;;;;;;;;;;;;;;;;;4996049;28;8714;-86
2023/06/30 02:28:57;;;;;;;;;;;;;;;;;;4995616;28;8457;-85
2023/06/30 02:31:22;;;;;;;;;;;;;;;;;;4995917;28;7289;-86
2023/06/30 02:33:48;;;;;;;;;;;;;;;;;;4995586;28;8769;-86
2023/06/30 02:36:13;;;;;;;;;;;;;;;;;;4995892;28;8731;-85
2023/06/30 02:38:39;;;;;;;;;;;;;;;;;;4995909;28;8362;-86
2023/06/30 02:41:04;;;;;;;;;;;;;;;;;;4995626;28;7496;-86
2023/06/30 02:43:30;;;;;;;;;;;;;;;;;;4995402;28;7219;-86
2023/06/30 02:45:55;;;;;;;;;;;;;;;;;;4994853;28;8334;-86
2023/06/30 02:48:21;;;;;;;;;;;;;;;;;;4995297;28;8563;-86
2023/06/30 02:50:46;;;;;;;;;;;;;;;;;;4995107;28;7400;-86
2023/06/30 02:53:11;;;;;;;;;;;;;;;;;;4994896;28;8691;-86
2023/06/30 02:55:37;;;;;;;;;;;;;;;;;;4995819;28;7105;-85
2023/06/30 02:58:03;;;;;;;;;;;;;;;;;;4995170;28;8435;-86
2023/06/30 03:00:28;;;;;;;;;;;;;;;;;;4994995;28;9271;-86
2023/06/30 03:02:54;;;;;;;;;;;;;;;;;;5013685;28;7267;-86
2023/06/30 03:05:19;;;;;;;;;;;;;;;;;;5014644;28;8498;-84
2023/06/30 03:07:45;;;;;;;;;;;;;;;;;;5014244;28;8382;-84
2023/06/30 03:10:10;;;;;;;;;;;;;;;;;;5014787;28;7845;-86
2023/06/30 03:12:36;;;;;;;;;;;;;;;;;;5014719;28;7142;-88
2023/06/30 03:15:01;;;;;;;;;;;;;;;;;;5014238;28;7244;-86
2023/06/30 03:17:27;;;;;;;;;;;;;;;;;;5014478;28;7302;-86
2023/06/30 03:19:52;;;;;;;;;;;;;;;;;;5014286;28;7230;-86
2023/06/30 03:22:17;;;;;;;;;;;;;;;;;;5014830;28;7062;-86
2023/06/30 03:24:43;;;;;;;;;;;;;;;;;;5014239;28;8403;-85
2023/06/30 03:27:08;;;;;;;;;;;;;;;;;;5014212;28;8898;-84
2023/06/30 03:29:34;;;;;;;;;;;;;;;;;;5014598;28;8438;-84
2023/06/30 03:31:59;;;;;;;;;;;;;;;;;;5014240;28;8713;-84
2023/06/30 03:34:25;;;;;;;;;;;;;;;;;;5014105;28;7288;-84
2023/06/30 03:36:50;;;;;;;;;;;;;;;;;;5014471;28;7400;-84
2023/06/30 03:39:16;;;;;;;;;;;;;;;;;;5014382;28;8647;-84
2023/06/30 03:41:42;;;;;;;;;;;;;;;;;;5013897;28;8566;-84
2023/06/30 03:44:07;;;;;;;;;;;;;;;;;;5014001;28;8716;-84
2023/06/30 03:46:34;;;;;;;;;;;;;;;;;;5013512;28;7406;-84
2023/06/30 03:48:59;;;;;;;;;;;;;;;;;;5014019;28;7485;-84
2023/06/30 03:51:25;;;;;;;;;;;;;;;;;;5013286;28;7102;-84
2023/06/30 03:53:50;;;;;;;;;;;;;;;;;;5013821;28;7237;-84
2023/06/30 03:56:15;;;;;;;;;;;;;;;;;;5013742;28;8453;-83
2023/06/30 03:58:41;;;;;;;;;;;;;;;;;;5013432;28;7425;-84
2023/06/30 04:01:07;;;;;;;;;;;;;;;;;;5009976;28;8512;-84
2023/06/30 04:03:33;;;;;;;;;;;;;;;;;;4993654;28;8422;-83
2023/06/30 04:05:59;;;;;;;;;;;;;;;;;;4993626;28;9523;-83
2023/06/30 04:08:24;;;;;;;;;;;;;;;;;;4993829;28;8435;-84
2023/06/30 04:10:49;;;;;;;;;;;;;;;;;;4993754;28;8507;-84
2023/06/30 04:13:15;;;;;;;;;;;;;;;;;;4994125;28;8448;-84
2023/06/30 04:15:40;;;;;;;;;;;;;;;;;;4993766;28;7061;-83
2023/06/30 04:18:06;;;;;;;;;;;;;;;;;;4993941;28;7304;-83
2023/06/30 04:20:31;;;;;;;;;;;;;;;;;;4994134;28;8427;-86
2023/06/30 04:22:57;;;;;;;;;;;;;;;;;;4991675;28;8556;-86
2023/06/30 04:25:22;;;;;;;;;;;;;;;;;;4992106;28;8620;-86
2023/06/30 04:27:48;;;;;;;;;;;;;;;;;;4991907;28;8536;-86
2023/06/30 04:30:14;;;;;;;;;;;;;;;;;;4992944;28;8609;-86
2023/06/30 04:32:39;;;;;;;;;;;;;;;;;;4992749;28;8457;-84
2023/06/30 04:35:05;;;;;;;;;;;;;;;;;;4992822;28;8331;-85
2023/06/30 04:37:30;;;;;;;;;;;;;;;;;;4992359;28;8414;-82
2023/06/30 04:39:57;;;;;;;;;;;;;;;;;;4992919;28;8392;-92
2023/06/30 04:42:22;;;;;;;;;;;;;;;;;;4992260;28;8492;-86
2023/06/30 04:44:48;;;;;;;;;;;;;;;;;;4992483;28;7076;-88
2023/06/30 04:47:15;;;;;;;;;;;;;;;;;;4992685;28;7216;-87
2023/06/30 04:49:41;;;;;;;;;;;;;;;;;;4992059;28;7220;-85
2023/06/30 04:52:06;;;;;;;;;;;;;;;;;;4992037;28;7320;-85
2023/06/30 04:54:32;;;;;;;;;;;;;;;;;;4992413;28;8573;-86
2023/06/30 04:56:57;;;;;;;;;;;;;;;;;;4992544;28;8467;-86
2023/06/30 04:59:23;;;;;;;;;;;;;;;;;;4991855;28;7196;-86
2023/06/30 05:01:49;;;;;;;;;;;;;;;;;;4991572;28;7829;-85
2023/06/30 05:04:14;;;;;;;;;;;;;;;;;;4991851;28;8439;-85
2023/06/30 05:06:40;;;;;;;;;;;;;;;;;;4991892;28;7459;-84
2023/06/30 05:09:05;;;;;;;;;;;;;;;;;;4994567;28;7175;-84
2023/06/30 05:11:31;;;;;;;;;;;;;;;;;;4997732;28;8412;-86
2023/06/30 05:13:57;;;;;;;;;;;;;;;;;;4997262;28;7312;-84
2023/06/30 05:16:23;;;;;;;;;;;;;;;;;;4995808;28;8424;-85
2023/06/30 05:18:48;;;;;;;;;;;;;;;;;;4996222;28;8675;-86
2023/06/30 05:21:14;;;;;;;;;;;;;;;;;;4996002;28;7440;-84
2023/06/30 05:23:39;;;;;;;;;;;;;;;;;;5011947;28;8483;-85
2023/06/30 05:26:05;;;;;;;;;;;;;;;;;;5011689;28;8434;-87
2023/06/30 05:28:31;;;;;;;;;;;;;;;;;;5003315;28;7233;-85
2023/06/30 05:30:56;;;;;;;;;;;;;;;;;;5012131;28;7437;-86
2023/06/30 05:33:22;;;;;;;;;;;;;;;;;;5011353;28;8834;-85
2023/06/30 05:35:47;;;;;;;;;;;;;;;;;;5013556;28;8589;-85
2023/06/30 05:38:13;;;;;;;;;;;;;;;;;;5013622;28;7050;-85
2023/06/30 05:40:38;;;;;;;;;;;;;;;;;;5012053;28;7113;-86
2023/06/30 05:43:07;;;;;;;;;;;;;;;;;;4993084;28;7443;-84
2023/06/30 05:45:33;;;;;;;;;;;;;;;;;;5008341;28;8821;-86
2023/06/30 05:47:58;;;;;;;;;;;;;;;;;;4994630;28;7330;-85
2023/06/30 05:50:24;;;;;;;;;;;;;;;;;;5003154;28;7123;-86
2023/06/30 05:52:49;;;;;;;;;;;;;;;;;;5011701;28;6937;-86
2023/06/30 05:55:15;;;;;;;;;;;;;;;;;;5003297;28;7083;-85
2023/06/30 05:57:40;;;;;;;;;;;;;;;;;;4996197;28;7448;-87
2023/06/30 06:00:07;;;;;;;;;;;;;;;;;;5011117;28;7179;-87
2023/06/30 06:02:34;;;;;;;;;;;;;;;;;;5010752;28;7167;-83
2023/06/30 06:04:59;;;;;;;;;;;;;;;;;;4994714;28;8921;-80
2023/06/30 06:07:25;;;;;;;;;;;;;;;;;;5011391;28;8776;-80
2023/06/30 06:09:50;;;;;;;;;;;;;;;;;;4997847;28;8394;-80
2023/06/30 06:12:16;;;;;;;;;;;;;;;;;;4995088;28;8742;-80
2023/06/30 06:14:42;;;;;;;;;;;;;;;;;;4994857;28;8553;-80
2023/06/30 06:17:07;;;;;;;;;;;;;;;;;;4994957;28;7684;-80
2023/06/30 06:19:33;;;;;;;;;;;;;;;;;;5010567;28;8491;-79
2023/06/30 06:22:00;;;;;;;;;;;;;;;;;;4993959;28;8757;-81
2023/06/30 06:24:26;;;;;;;;;;;;;;;;;;4994626;28;8913;-81
2023/06/30 06:26:51;;;;;;;;;;;;;;;;;;4994633;28;8513;-84
2023/06/30 06:29:21;;;;;;;;;;;;;;;;;;4994716;28;8535;-82
2023/06/30 06:31:51;;;;;;;;;;;;;;;;;;4995037;28;7236;-83
2023/06/30 06:34:17;;;;;;;;;;;;;;;;;;4994602;28;8589;-80
2023/06/30 06:36:44;;;;;;;;;;;;;;;;;;4994415;28;7100;-82
2023/06/30 06:39:10;;;;;;;;;;;;;;;;;;4994592;28;8833;-76
2023/06/30 06:41:37;;;;;;;;;;;;;;;;;;4994184;28;8556;-78
2023/06/30 06:44:03;;;;;;;;;;;;;;;;;;4994601;28;8487;-77
2023/06/30 06:46:29;;;;;;;;;;;;;;;;;;4994658;28;8430;-77
2023/06/30 06:48:57;;;;;;;;;;;;;;;;;;4993260;28;7475;-78
2023/06/30 06:51:23;;;;;;;;;;;;;;;;;;4994304;28;8549;-80
2023/06/30 06:53:48;;;;;;;;;;;;;;;;;;4994045;28;8568;-81
2023/06/30 06:56:14;;;;;;;;;;;;;;;;;;4993970;28;7120;-82
2023/06/30 06:58:39;;;;;;;;;;;;;;;;;;4994057;28;9041;-81
2023/06/30 07:01:05;;;;;;;;;;;;;;;;;;4996884;28;7511;-81
2023/06/30 07:03:31;;;;;;;;;;;;;;;;;;5013644;28;8517;-80
2023/06/30 07:05:59;;;;;;;;;;;;;;;;;;5013469;28;7137;-81
2023/06/30 07:08:25;;;;;;;;;;;;;;;;;;5013465;28;7207;-81
2023/06/30 07:10:51;;;;;;;;;;;;;;;;;;5013581;28;6978;-81
2023/06/30 07:13:21;;;;;;;;;;;;;;;;;;5009244;28;7276;-80
2023/06/30 07:15:50;;;;;;;;;;;;;;;;;;4989007;28;7259;-81
2023/06/30 07:18:19;;;;;;;;;;;;;;;;;;5012981;28;7364;-81
2023/06/30 07:20:46;;;;;;;;;;;;;;;;;;5002443;28;7297;-84
2023/06/30 07:23:12;;;;;;;;;;;;;;;;;;5013041;28;7430;-84
2023/06/30 07:25:37;;;;;;;;;;;;;;;;;;5013192;28;8874;-84
2023/06/30 07:28:03;;;;;;;;;;;;;;;;;;5013348;28;8487;-84
2023/06/30 07:30:28;;;;;;;;;;;;;;;;;;5013002;28;7260;-82
2023/06/30 07:32:54;;;;;;;;;;;;;;;;;;5012714;28;8490;-83
2023/06/30 07:35:21;;;;;;;;;;;;;;;;;;5013032;28;8562;-84
2023/06/30 07:37:47;;;;;;;;;;;;;;;;;;5012873;28;7411;-83
2023/06/30 07:40:14;;;;;;;;;;;;;;;;;;5013048;28;8801;-84
2023/06/30 07:42:40;;;;;;;;;;;;;;;;;;5013022;28;7254;-85
2023/06/30 07:45:09;;;;;;;;;;;;;;;;;;5012741;28;7266;-83
2023/06/30 07:47:35;;;;;;;;;;;;;;;;;;5012607;28;7236;-82
2023/06/30 07:50:01;;;;;;;;;;;;;;;;;;5013097;28;8460;-81
2023/06/30 07:52:27;;;;;;;;;;;;;;;;;;5013108;28;7285;-80
2023/06/30 07:54:55;;;;;;;;;;;;;;;;;;5010787;28;7149;-79
2023/06/30 07:57:24;;;;;;;;;;;;;;;;;;5012258;28;8414;-83
2023/06/30 07:59:50;;;;;;;;;;;;;;;;;;5012249;28;8739;-80
2023/06/30 08:02:17;;;;;;;;;;;;;;;;;;5001690;28;8571;-81
2023/06/30 08:04:43;;;;;;;;;;;;;;;;;;5004689;28;9218;-81
2023/06/30 08:07:08;;;;;;;;;;;;;;;;;;5012363;28;8490;-80
2023/06/30 08:09:34;;;;;;;;;;;;;;;;;;5012137;28;7311;-80
2023/06/30 08:11:59;;;;;;;;;;;;;;;;;;5012579;28;8487;-81
2023/06/30 08:14:25;;;;;;;;;;;;;;;;;;5012329;28;8343;-81
2023/06/30 08:16:50;;;;;;;;;;;;;;;;;;5012160;28;7326;-81
2023/06/30 08:19:15;;;;;;;;;;;;;;;;;;5012298;28;7397;-83
2023/06/30 08:21:41;;;;;;;;;;;;;;;;;;5012426;28;8466;-80
2023/06/30 08:24:06;;;;;;;;;;;;;;;;;;5011945;28;8415;-83
2023/06/30 08:26:32;;;;;;;;;;;;;;;;;;5011849;28;8787;-82
2023/06/30 08:28:57;;;;;;;;;;;;;;;;;;5008591;28;7604;-80
2023/06/30 08:31:23;;;;;;;;;;;;;;;;;;4992840;28;7325;-82
2023/06/30 08:33:48;;;;;;;;;;;;;;;;;;4992345;28;7095;-81
2023/06/30 08:36:14;;;;;;;;;;;;;;;;;;4993403;28;8492;-81
2023/06/30 08:38:39;;;;;;;;;;;;;;;;;;4992515;28;8682;-81
2023/06/30 08:41:05;;;;;;;;;;;;;;;;;;4992374;28;8694;-82
2023/06/30 08:43:31;;;;;;;;;;;;;;;;;;4993120;28;8736;-81
2023/06/30 08:45:59;;;;;;;;;;;;;;;;;;4996703;28;8449;-82
2023/06/30 08:48:27;;;;;;;;;;;;;;;;;;4996597;28;8580;-82
2023/06/30 08:50:53;;;;;;;;;;;;;;;;;;4996399;28;8568;-81
2023/06/30 08:53:23;;;;;;;;;;;;;;;;;;4996186;28;7313;-82
2023/06/30 08:55:48;;;;;;;;;;;;;;;;;;4996335;28;7256;-81
2023/06/30 08:58:14;;;;;;;;;;;;;;;;;;4999711;28;8462;-81
2023/06/30 09:00:39;;;;;;;;;;;;;;;;;;5015980;28;8829;-81
2023/06/30 09:03:06;;;;;;;;;;;;;;;;;;5012098;28;8471;-80
2023/06/30 09:05:36;;;;;;;;;;;;;;;;;;4996128;28;8817;-81
2023/06/30 09:08:07;;;;;;;;;;;;;;;;;;4995626;28;7178;-82
2023/06/30 09:10:37;;;;;;;;;;;;;;;;;;4996009;28;8533;-86
2023/06/30 09:13:04;;;;;;;;;;;;;;;;;;4995386;28;7330;-83
2023/06/30 09:15:30;;;;;;;;;;;;;;;;;;4996212;28;8656;-80
2023/06/30 09:17:56;;;;;;;;;;;;;;;;;;4996202;28;8405;-83
2023/06/30 09:20:22;;;;;;;;;;;;;;;;;;4995315;28;8491;-84
2023/06/30 09:22:48;;;;;;;;;;;;;;;;;;4995808;28;7236;-84
2023/06/30 09:25:25;;;;;;;;;;;;;;;;;;4995922;28;8596;-82
2023/06/30 09:27:52;;;;;;;;;;;;;;;;;;5011855;28;7099;-82
2023/06/30 09:30:18;;;;;;;;;;;;;;;;;;5011621;28;8514;-84
2023/06/30 09:32:43;;;;;;;;;;;;;;;;;;4995173;28;7389;-84
2023/06/30 09:35:12;;;;;;;;;;;;;;;;;;4995509;28;8993;-84
2023/06/30 09:37:42;;;;;;;;;;;;;;;;;;4995497;28;8521;-85
2023/06/30 09:40:12;;;;;;;;;;;;;;;;;;4995730;28;8424;-84
2023/06/30 09:42:37;;;;;;;;;;;;;;;;;;4995089;28;8710;-85
2023/06/30 09:45:03;;;;;;;;;;;;;;;;;;4992276;28;7253;-85
2023/06/30 09:47:29;;;;;;;;;;;;;;;;;;4994206;28;8492;-83
2023/06/30 09:49:54;;;;;;;;;;;;;;;;;;5002859;28;8822;-85
2023/06/30 09:52:25;;;;;;;;;;;;;;;;;;5013251;28;8571;-84
2023/06/30 09:54:50;;;;;;;;;;;;;;;;;;5013356;28;7236;-85
2023/06/30 09:57:16;;;;;;;;;;;;;;;;;;5013324;28;8686;-84
2023/06/30 09:59:41;;;;;;;;;;;;;;;;;;5006798;28;8503;-84
2023/06/30 10:02:07;;;;;;;;;;;;;;;;;;4994701;28;8593;-83
2023/06/30 10:04:33;;;;;;;;;;;;;;;;;;4995105;28;7211;-84
2023/06/30 10:07:01;;;;;;;;;;;;;;;;;;4994874;28;9211;-84
2023/06/30 10:09:29;;;;;;;;;;;;;;;;;;4994926;28;8574;-81
2023/06/30 10:11:57;;;;;;;;;;;;;;;;;;4995456;28;8687;-81
2023/06/30 10:14:31;;;;;;;;;;;;;;;;;;4995106;28;8588;-83
2023/06/30 10:16:57;;;;;;;;;;;;;;;;;;4995112;28;8770;-83
2023/06/30 10:19:24;;;;;;;;;;;;;;;;;;4994764;28;8860;-84
2023/06/30 10:21:50;;;;;;;;;;;;;;;;;;4994834;28;7263;-82
2023/06/30 10:24:20;;;;;;;;;;;;;;;;;;4994741;28;8589;-82
2023/06/30 10:26:48;;;;;;;;;;;;;;;;;;4995281;28;7457;-82
2023/06/30 10:29:14;;;;;;;;;;;;;;;;;;4994679;28;7494;-84
2023/06/30 10:31:42;;;;;;;;;;;;;;;;;;4994902;28;8489;-84
2023/06/30 10:34:09;;;;;;;;;;;;;;;;;;4994439;28;8577;-84
2023/06/30 10:36:36;;;;;;;;;;;;;;;;;;4994680;28;7386;-83
2023/06/30 10:39:02;;;;;;;;;;;;;;;;;;4994399;28;7162;-84
2023/06/30 10:41:28;;;;;;;;;;;;;;;;;;4994593;28;8522;-84
2023/06/30 10:44:00;;;;;;;;;;;;;;;;;;4994664;28;8675;-84
2023/06/30 10:46:45;;;;;;;;;;;;;;;;;;5010807;28;7240;-84
2023/06/30 10:49:18;;;;;;;;;;;;;;;;;;5011088;28;7607;-85
2023/06/30 10:51:49;;;;;;;;;;;;;;;;;;4994548;28;7152;-83
2023/06/30 10:54:22;;;;;;;;;;;;;;;;;;4994217;28;8870;-83
2023/06/30 10:56:49;;;;;;;;;;;;;;;;;;4994154;28;8485;-83
2023/06/30 10:59:17;;;;;;;;;;;;;;;;;;4993957;28;7135;-83
2023/06/30 11:02:02;;;;;;;;;;;;;;;;;;4994226;28;8426;-82
2023/06/30 11:04:38;;;;;;;;;;;;;;;;;;4993717;28;8551;-81
2023/06/30 11:07:06;;;;;;;;;;;;;;;;;;4993474;28;7228;-84
2023/06/30 11:09:47;;;;;;;;;;;;;;;;;;4994213;28;8538;-82
2023/06/30 11:12:18;;;;;;;;;;;;;;;;;;5010516;28;7522;-80
2023/06/30 11:14:50;;;;;;;;;;;;;;;;;;4993793;28;9273;-83
2023/06/30 11:17:15;;;;;;;;;;;;;;;;;;5009969;28;8468;-83
2023/06/30 11:19:55;;;;;;;;;;;;;;;;;;4993934;28;7491;-84
2023/06/30 11:22:21;;;;;;;;;;;;;;;;;;4993607;28;7133;-83
2023/06/30 11:24:47;;;;;;;;;;;;;;;;;;4994046;28;8621;-85
2023/06/30 11:27:14;;;;;;;;;;;;;;;;;;4994127;28;7232;-83
2023/06/30 11:29:41;;;;;;;;;;;;;;;;;;4993724;28;7484;-83
2023/06/30 11:32:07;;;;;;;;;;;;;;;;;;4993557;28;8550;-84
2023/06/30 11:34:32;;;;;;;;;;;;;;;;;;4993246;28;8943;-84
2023/06/30 11:36:58;;;;;;;;;;;;;;;;;;4993272;28;9012;-86
2023/06/30 11:39:24;;;;;;;;;;;;;;;;;;4993412;28;8519;-83
2023/06/30 11:41:49;;;;;;;;;;;;;;;;;;4993107;28;8351;-83
2023/06/30 11:44:15;;;;;;;;;;;;;;;;;;4993620;28;8594;-83
2023/06/30 11:46:40;;;;;;;;;;;;;;;;;;4993066;28;8520;-83
2023/06/30 11:49:06;;;;;;;;;;;;;;;;;;4993327;28;8403;-84
2023/06/30 11:51:32;;;;;;;;;;;;;;;;;;4993148;28;8490;-83
2023/06/30 11:53:58;;;;;;;;;;;;;;;;;;4993322;28;9313;-82
2023/06/30 11:56:24;;;;;;;;;;;;;;;;;;4993132;28;7126;-84
2023/06/30 11:58:53;;;;;;;;;;;;;;;;;;4991707;28;8912;-85
2023/06/30 12:01:22;;;;;;;;;;;;;;;;;;4992011;28;8587;-84
2023/06/30 12:04:08;;;;;;;;;;;;;;;;;;4992380;28;7278;-83
2023/06/30 12:06:35;;;;;;;;;;;;;;;;;;5008602;28;8637;-83
2023/06/30 12:09:02;;;;;;;;;;;;;;;;;;4992406;28;7453;-84
2023/06/30 12:11:30;;;;;;;;;;;;;;;;;;4992090;28;8908;-83
2023/06/30 12:13:55;;;;;;;;;;;;;;;;;;4991977;28;8524;-85
2023/06/30 12:16:25;;;;;;;;;;;;;;;;;;4991922;28;7360;-84
2023/06/30 12:18:50;;;;;;;;;;;;;;;;;;4991169;28;8531;-84
2023/06/30 12:21:17;;;;;;;;;;;;;;;;;;4993337;28;8619;-83
2023/06/30 12:23:44;;;;;;;;;;;;;;;;;;4992779;28;7278;-83
2023/06/30 12:26:13;;;;;;;;;;;;;;;;;;4992589;28;8570;-83
2023/06/30 12:28:39;;;;;;;;;;;;;;;;;;4993276;28;7148;-83
2023/06/30 12:31:05;;;;;;;;;;;;;;;;;;4992762;28;8692;-82
2023/06/30 12:33:30;;;;;;;;;;;;;;;;;;5009106;28;8395;-83
2023/06/30 12:35:56;;;;;;;;;;;;;;;;;;4992037;28;7314;-85
2023/06/30 12:38:21;;;;;;;;;;;;;;;;;;4992618;28;8570;-83
2023/06/30 12:40:49;;;;;;;;;;;;;;;;;;4992205;28;8467;-81
2023/06/30 12:43:16;;;;;;;;;;;;;;;;;;4992474;28;7251;-82
2023/06/30 12:45:41;;;;;;;;;;;;;;;;;;4992937;28;8752;-83
2023/06/30 12:48:07;;;;;;;;;;;;;;;;;;4992613;28;7335;-82
2023/06/30 12:50:33;;;;;;;;;;;;;;;;;;4992677;28;7227;-83
2023/06/30 12:52:59;;;;;;;;;;;;;;;;;;4992303;28;7127;-82
2023/06/30 12:55:26;;;;;;;;;;;;;;;;;;4992609;28;9056;-84
2023/06/30 12:57:52;;;;;;;;;;;;;;;;;;4992924;28;8513;-82
2023/06/30 13:00:17;;;;;;;;;;;;;;;;;;4992260;28;7189;-84
2023/06/30 13:02:43;;;;;;;;;;;;;;;;;;4992409;28;8505;-83
2023/06/30 13:05:09;;;;;;;;;;;;;;;;;;4992691;28;8471;-83
2023/06/30 13:07:35;;;;;;;;;;;;;;;;;;4992400;28;8578;-82
2023/06/30 13:10:01;;;;;;;;;;;;;;;;;;4992878;28;7190;-83
2023/06/30 13:12:29;;;;;;;;;;;;;;;;;;4992513;28;8563;-82
2023/06/30 13:14:56;;;;;;;;;;;;;;;;;;4992312;28;7352;-84
2023/06/30 13:17:21;;;;;;;;;;;;;;;;;;4992298;28;8396;-82
2023/06/30 13:19:47;;;;;;;;;;;;;;;;;;4992344;28;9657;-81
2023/06/30 13:22:13;;;;;;;;;;;;;;;;;;4992279;28;8512;-82
2023/06/30 13:24:46;;;;;;;;;;;;;;;;;;4992595;28;7167;-84
2023/06/30 13:27:11;;;;;;;;;;;;;;;;;;4992089;28;7859;-83
2023/06/30 13:29:47;;;;;;;;;;;;;;;;;;4993618;28;7300;-84
2023/06/30 13:32:13;;;;;;;;;;;;;;;;;;4996045;28;7207;-84
2023/06/30 13:34:39;;;;;;;;;;;;;;;;;;4995687;28;8671;-83
2023/06/30 13:37:05;;;;;;;;;;;;;;;;;;4996059;28;8588;-84
2023/06/30 13:39:31;;;;;;;;;;;;;;;;;;4996272;28;7525;-85
2023/06/30 13:41:57;;;;;;;;;;;;;;;;;;4995739;28;8924;-84
2023/06/30 13:44:22;;;;;;;;;;;;;;;;;;4995600;28;8445;-84
2023/06/30 13:46:48;;;;;;;;;;;;;;;;;;4995598;28;8451;-84
2023/06/30 13:49:13;;;;;;;;;;;;;;;;;;4995704;28;7313;-83
2023/06/30 13:51:39;;;;;;;;;;;;;;;;;;4995761;28;8610;-84
2023/06/30 13:54:04;;;;;;;;;;;;;;;;;;4995583;28;8882;-83
2023/06/30 13:56:30;;;;;;;;;;;;;;;;;;4995232;28;7477;-83
2023/06/30 13:58:56;;;;;;;;;;;;;;;;;;4995458;28;8901;-82
2023/06/30 14:01:21;;;;;;;;;;;;;;;;;;4994083;28;8688;-81
2023/06/30 14:03:50;;;;;;;;;;;;;;;;;;5010628;28;7311;-83
2023/06/30 14:06:16;;;;;;;;;;;;;;;;;;4995001;28;9072;-85
2023/06/30 14:08:42;;;;;;;;;;;;;;;;;;5010271;28;7299;-85
2023/06/30 14:11:07;;;;;;;;;;;;;;;;;;4994705;28;8412;-85
2023/06/30 14:13:33;;;;;;;;;;;;;;;;;;4993974;28;8661;-86
2023/06/30 14:15:58;;;;;;;;;;;;;;;;;;4994708;28;8518;-86
2023/06/30 14:18:24;;;;;;;;;;;;;;;;;;4994039;28;8758;-86
2023/06/30 14:20:49;;;;;;;;;;;;;;;;;;4993526;28;8463;-85
2023/06/30 14:23:15;;;;;;;;;;;;;;;;;;4992610;28;7220;-86
2023/06/30 14:25:40;;;;;;;;;;;;;;;;;;4992379;28;7103;-86
2023/06/30 14:28:06;;;;;;;;;;;;;;;;;;4992947;28;8618;-86
2023/06/30 14:30:34;;;;;;;;;;;;;;;;;;4992182;28;8486;-85
2023/06/30 14:33:02;;;;;;;;;;;;;;;;;;4991993;28;9389;-86
2023/06/30 14:35:31;;;;;;;;;;;;;;;;;;4992665;28;7463;-84
2023/06/30 14:37:57;;;;;;;;;;;;;;;;;;4993863;28;9406;-85
2023/06/30 14:40:29;;;;;;;;;;;;;;;;;;5010598;28;7127;-83
2023/06/30 14:42:56;;;;;;;;;;;;;;;;;;4993299;28;9122;-83
2023/06/30 14:45:21;;;;;;;;;;;;;;;;;;4992509;28;8747;-83
2023/06/30 14:47:49;;;;;;;;;;;;;;;;;;4993026;28;7306;-85
2023/06/30 14:50:15;;;;;;;;;;;;;;;;;;4994043;28;8490;-85
2023/06/30 14:52:40;;;;;;;;;;;;;;;;;;4993784;28;8801;-85
2023/06/30 14:55:06;;;;;;;;;;;;;;;;;;4993856;28;8354;-85
2023/06/30 14:57:31;;;;;;;;;;;;;;;;;;4993857;28;8518;-85
2023/06/30 14:59:57;;;;;;;;;;;;;;;;;;4993868;28;8702;-86
2023/06/30 15:02:22;;;;;;;;;;;;;;;;;;4993902;28;8640;-81
2023/06/30 15:04:48;;;;;;;;;;;;;;;;;;4994909;28;8574;-83
2023/06/30 15:07:14;;;;;;;;;;;;;;;;;;4994601;28;7154;-84
2023/06/30 15:09:39;;;;;;;;;;;;;;;;;;4994625;28;7406;-85
2023/06/30 15:12:06;;;;;;;;;;;;;;;;;;4995152;28;8897;-83
2023/06/30 15:14:31;;;;;;;;;;;;;;;;;;4994491;28;8464;-84
2023/06/30 15:16:57;;;;;;;;;;;;;;;;;;4994882;28;8425;-82
2023/06/30 15:19:22;;;;;;;;;;;;;;;;;;4994806;28;7226;-86
2023/06/30 15:21:48;;;;;;;;;;;;;;;;;;4994436;28;9008;-85
2023/06/30 15:24:14;;;;;;;;;;;;;;;;;;4994488;28;8469;-84
2023/06/30 15:26:39;;;;;;;;;;;;;;;;;;4994886;28;8557;-82
2023/06/30 15:29:05;;;;;;;;;;;;;;;;;;4994638;28;8455;-85
2023/06/30 15:31:30;;;;;;;;;;;;;;;;;;4994499;28;8766;-86
2023/06/30 15:33:56;;;;;;;;;;;;;;;;;;4994279;28;8546;-82
2023/06/30 15:36:22;;;;;;;;;;;;;;;;;;4994459;28;8510;-83
2023/06/30 15:38:47;;;;;;;;;;;;;;;;;;4994229;28;8780;-83
2023/06/30 15:41:13;;;;;;;;;;;;;;;;;;4994129;28;7128;-84
2023/06/30 15:43:42;;;;;;;;;;;;;;;;;;4994460;28;8793;-83
2023/06/30 15:46:07;;;;;;;;;;;;;;;;;;4994325;28;7264;-84
2023/06/30 15:48:33;;;;;;;;;;;;;;;;;;4994126;28;8375;-83
2023/06/30 15:50:58;;;;;;;;;;;;;;;;;;4994005;28;8771;-84
2023/06/30 15:53:24;;;;;;;;;;;;;;;;;;4994128;28;8485;-86
2023/06/30 15:55:49;;;;;;;;;;;;;;;;;;4994149;28;8509;-85
2023/06/30 15:58:15;;;;;;;;;;;;;;;;;;4993913;28;7338;-84
2023/06/30 16:00:40;;;;;;;;;;;;;;;;;;5010567;28;8459;-85
2023/06/30 16:03:05;;;;;;;;;;;;;;;;;;4993401;28;7149;-86
2023/06/30 16:05:31;;;;;;;;;;;;;;;;;;4993209;28;9113;-84
2023/06/30 16:07:57;;;;;;;;;;;;;;;;;;4992862;28;8441;-85
2023/06/30 16:10:22;;;;;;;;;;;;;;;;;;4992638;28;8522;-84
2023/06/30 16:12:48;;;;;;;;;;;;;;;;;;4992766;28;8480;-83
2023/06/30 16:15:13;;;;;;;;;;;;;;;;;;4992988;28;8809;-84
2023/06/30 16:17:39;;;;;;;;;;;;;;;;;;4992650;28;8496;-84
2023/06/30 16:20:05;;;;;;;;;;;;;;;;;;4992671;28;8419;-84
2023/06/30 16:22:31;;;;;;;;;;;;;;;;;;4992645;28;8536;-84
2023/06/30 16:24:56;;;;;;;;;;;;;;;;;;4992299;28;8692;-84
2023/06/30 16:27:22;;;;;;;;;;;;;;;;;;4992267;28;8586;-83
2023/06/30 16:29:48;;;;;;;;;;;;;;;;;;4993014;28;8507;-84
2023/06/30 16:32:14;;;;;;;;;;;;;;;;;;4992330;28;7285;-84
2023/06/30 16:34:39;;;;;;;;;;;;;;;;;;4992396;28;8779;-84
2023/06/30 16:37:05;;;;;;;;;;;;;;;;;;4992432;28;8684;-84
2023/06/30 16:39:31;;;;;;;;;;;;;;;;;;4992270;28;8528;-82
2023/06/30 16:41:56;;;;;;;;;;;;;;;;;;4992899;28;8878;-85
2023/06/30 16:44:22;;;;;;;;;;;;;;;;;;4992507;28;8517;-82
2023/06/30 16:46:47;;;;;;;;;;;;;;;;;;4992893;28;8339;-84
2023/06/30 16:49:13;;;;;;;;;;;;;;;;;;4992240;28;8506;-83
2023/06/30 16:51:38;;;;;;;;;;;;;;;;;;4992531;28;7132;-83
2023/06/30 16:54:04;;;;;;;;;;;;;;;;;;4992287;28;8915;-83
2023/06/30 16:56:30;;;;;;;;;;;;;;;;;;5008657;28;8580;-82
2023/06/30 16:58:56;;;;;;;;;;;;;;;;;;4992521;28;7518;-83